createdAt,value
2023-04-20T00:01:36.483Z,8.90
2023-04-20T00:04:08.234Z,8.90
2023-04-20T00:06:39.083Z,8.80
2023-04-20T00:09:10.991Z,8.80
2023-04-20T00:11:42.196Z,8.80
2023-04-20T00:14:18.974Z,8.70
2023-04-20T00:16:49.881Z,8.80
2023-04-20T00:19:21.320Z,8.70
2023-04-20T00:21:53.125Z,8.60
2023-04-20T00:24:24.082Z,8.60
2023-04-20T00:26:55.251Z,8.50
2023-04-20T00:29:28.776Z,8.50
2023-04-20T00:31:59.825Z,8.40
2023-04-20T00:34:30.823Z,8.40
2023-04-20T00:37:04.884Z,8.40
2023-04-20T00:39:35.962Z,8.30
2023-04-20T00:42:08.011Z,8.30
2023-04-20T00:44:41.688Z,8.40
2023-04-20T00:47:12.635Z,8.30
2023-04-20T00:49:43.757Z,8.30
2023-04-20T00:52:14.820Z,8.30
2023-04-20T00:54:45.778Z,8.20
2023-04-20T00:57:17.819Z,8.10
2023-04-20T00:59:51.899Z,8.00
2023-04-20T01:02:22.918Z,8.00
2023-04-20T01:04:53.962Z,8.00
2023-04-20T01:07:24.871Z,8.00
2023-04-20T01:09:55.819Z,8.10
2023-04-20T01:12:26.974Z,8.10
2023-04-20T01:15:00.944Z,8.20
2023-04-20T01:17:31.881Z,8.20
2023-04-20T01:20:02.932Z,8.20
2023-04-20T01:22:36.609Z,8.30
2023-04-20T01:25:08.939Z,8.30
2023-04-20T01:27:40.259Z,8.30
2023-04-20T01:30:17.427Z,8.40
2023-04-20T01:36:30.260Z,8.40
2023-04-20T01:39:03.902Z,8.40
2023-04-20T01:41:34.856Z,8.40
2023-04-20T01:44:05.862Z,8.30
2023-04-20T01:46:39.509Z,8.30
2023-04-20T01:49:11.113Z,8.30
2023-04-20T01:51:44.090Z,8.30
2023-04-20T01:54:19.753Z,8.40
2023-04-20T01:56:50.975Z,8.40
2023-04-20T01:59:24.866Z,8.30
2023-04-20T02:01:56.858Z,8.30
2023-04-20T02:04:28.079Z,8.20
2023-04-20T02:06:59.109Z,8.20
2023-04-20T02:09:32.639Z,8.20
2023-04-20T02:12:03.554Z,8.20
2023-04-20T02:14:34.540Z,8.20
2023-04-20T02:17:05.516Z,8.30
2023-04-20T02:19:36.451Z,8.30
2023-04-20T02:22:07.439Z,8.30
2023-04-20T02:24:41.570Z,8.30
2023-04-20T02:27:12.748Z,8.20
2023-04-20T02:29:43.917Z,8.20
2023-04-20T02:32:14.764Z,8.10
2023-04-20T02:34:45.681Z,8.20
2023-04-20T02:37:19.672Z,8.30
2023-04-20T02:39:55.228Z,8.20
2023-04-20T02:42:26.225Z,8.20
2023-04-20T02:44:57.311Z,8.20
2023-04-20T02:47:28.698Z,8.30
2023-04-20T02:49:59.837Z,8.30
2023-04-20T02:52:30.715Z,8.20
2023-04-20T02:55:04.211Z,8.20
2023-04-20T02:57:35.555Z,8.30
2023-04-20T03:00:08.923Z,8.30
2023-04-20T03:02:40.001Z,8.20
2023-04-20T03:05:12.404Z,8.20
2023-04-20T03:08:26.629Z,8.10
2023-04-20T03:11:00.054Z,8.10
2023-04-20T03:13:30.948Z,8.10
2023-04-20T03:16:01.986Z,8.00
2023-04-20T03:18:32.897Z,8.10
2023-04-20T03:21:04.156Z,8.10
2023-04-20T03:23:35.106Z,8.10
2023-04-20T03:26:08.827Z,8.10
2023-04-20T03:28:40.188Z,8.10
2023-04-20T03:31:11.375Z,8.10
2023-04-20T03:33:42.306Z,8.10
2023-04-20T03:36:14.082Z,8.10
2023-04-20T03:38:44.938Z,8.00
2023-04-20T03:41:18.464Z,8.00
2023-04-20T03:43:49.273Z,7.80
2023-04-20T03:46:22.022Z,7.90
2023-04-20T03:48:54.086Z,7.80
2023-04-20T03:51:25.041Z,7.70
2023-04-20T03:53:55.964Z,7.80
2023-04-20T03:56:29.714Z,7.70
2023-04-20T03:59:00.980Z,7.70
2023-04-20T04:01:31.979Z,7.70
2023-04-20T04:04:03.071Z,7.70
2023-04-20T04:06:34.336Z,7.70
2023-04-20T04:09:05.412Z,7.70
2023-04-20T04:11:38.918Z,7.80
2023-04-20T04:14:09.870Z,7.70
2023-04-20T04:16:40.971Z,7.70
2023-04-20T04:19:14.854Z,7.70
2023-04-20T04:21:46.096Z,7.70
2023-04-20T04:24:17.659Z,7.80
2023-04-20T04:26:51.650Z,7.70
2023-04-20T04:29:22.548Z,7.70
2023-04-20T04:31:53.903Z,7.60
2023-04-20T04:34:29.930Z,7.70
2023-04-20T04:37:01.290Z,7.80
2023-04-20T04:39:32.886Z,7.70
2023-04-20T04:42:07.206Z,7.70
2023-04-20T04:44:40.396Z,7.80
2023-04-20T04:47:11.964Z,7.80
2023-04-20T04:49:46.281Z,7.70
2023-04-20T04:52:21.946Z,7.80
2023-04-20T04:54:52.995Z,7.70
2023-04-20T04:57:26.799Z,7.60
2023-04-20T04:59:58.056Z,7.70
2023-04-20T05:02:29.431Z,7.70
2023-04-20T05:05:00.657Z,7.70
2023-04-20T05:07:32.039Z,7.70
2023-04-20T05:10:03.004Z,7.70
2023-04-20T05:12:37.038Z,7.50
2023-04-20T05:15:08.778Z,7.60
2023-04-20T05:17:39.682Z,7.60
2023-04-20T05:20:12.516Z,7.70
2023-04-20T05:22:43.549Z,7.60
2023-04-20T05:25:14.784Z,7.80
2023-04-20T05:27:48.292Z,7.70
2023-04-20T05:30:21.706Z,7.50
2023-04-20T05:32:53.616Z,7.50
2023-04-20T05:35:44.617Z,7.30
2023-04-20T05:38:24.781Z,7.00
2023-04-20T05:40:56.373Z,6.90
2023-04-20T05:43:30.022Z,6.80
2023-04-20T05:46:01.434Z,6.90
2023-04-20T05:48:32.434Z,6.90
2023-04-20T05:51:03.773Z,6.90
2023-04-20T05:53:34.728Z,6.80
2023-04-20T05:56:05.846Z,6.80
2023-04-20T05:58:40.387Z,6.70
2023-04-20T06:01:11.737Z,7.10
2023-04-20T06:03:42.811Z,6.80
2023-04-20T06:06:16.640Z,6.90
2023-04-20T06:08:48.271Z,6.90
2023-04-20T06:11:19.426Z,6.90
2023-04-20T06:13:53.159Z,6.90
2023-04-20T06:16:24.143Z,6.80
2023-04-20T06:18:55.038Z,6.90
2023-04-20T06:21:27.412Z,6.90
2023-04-20T06:23:58.372Z,6.90
2023-04-20T06:26:29.466Z,6.80
2023-04-20T06:29:03.382Z,6.80
2023-04-20T06:31:34.305Z,6.70
2023-04-20T06:34:05.492Z,6.70
2023-04-20T06:36:36.682Z,6.90
2023-04-20T06:39:07.849Z,7.00
2023-04-20T06:41:39.259Z,7.00
2023-04-20T06:44:13.461Z,7.00
2023-04-20T06:46:44.600Z,7.10
2023-04-20T06:49:15.731Z,7.20
2023-04-20T06:51:46.787Z,7.30
2023-04-20T06:54:17.679Z,7.40
2023-04-20T06:56:48.861Z,7.30
2023-04-20T06:59:22.511Z,7.30
2023-04-20T07:01:53.603Z,7.50
2023-04-20T07:04:24.915Z,7.50
2023-04-20T07:06:56.320Z,7.50
2023-04-20T07:09:27.362Z,7.50
2023-04-20T07:11:59.228Z,7.50
2023-04-20T07:14:32.794Z,7.50
2023-04-20T07:17:03.708Z,7.40
2023-04-20T07:19:35.801Z,7.40
2023-04-20T07:22:06.742Z,7.50
2023-04-20T07:24:37.690Z,7.50
2023-04-20T07:27:09.001Z,7.50
2023-04-20T07:29:42.599Z,7.50
2023-04-20T07:32:14.698Z,7.50
2023-04-20T07:34:45.815Z,7.50
2023-04-20T07:37:16.919Z,7.40
2023-04-20T07:39:47.852Z,7.30
2023-04-20T07:42:18.887Z,7.40
2023-04-20T07:44:52.369Z,7.40
2023-04-20T07:47:23.391Z,7.80
2023-04-20T07:49:54.877Z,7.40
2023-04-20T07:52:25.924Z,7.40
2023-04-20T07:54:58.184Z,7.50
2023-04-20T07:57:32.375Z,7.50
2023-04-20T08:00:08.950Z,7.30
2023-04-20T08:02:39.990Z,7.40
2023-04-20T08:05:12.917Z,7.50
2023-04-20T08:07:44.343Z,7.40
2023-04-20T08:10:15.588Z,7.30
2023-04-20T08:12:47.216Z,7.20
2023-04-20T08:15:20.959Z,7.30
2023-04-20T08:17:53.154Z,7.20
2023-04-20T08:20:24.224Z,7.20
2023-04-20T08:22:55.518Z,7.10
2023-04-20T08:25:27.319Z,7.20
2023-04-20T08:27:58.374Z,7.20
2023-04-20T08:30:32.669Z,7.20
2023-04-20T08:33:03.826Z,7.00
2023-04-20T08:35:34.956Z,7.10
2023-04-20T08:38:06.038Z,7.10
2023-04-20T08:40:39.790Z,7.10
2023-04-20T08:43:10.809Z,7.30
2023-04-20T08:45:47.292Z,7.70
2023-04-20T08:48:20.137Z,8.00
2023-04-20T08:50:51.451Z,8.10
2023-04-20T08:53:22.884Z,7.90
2023-04-20T08:55:56.894Z,7.90
2023-04-20T08:58:28.427Z,7.90
2023-04-20T09:01:02.171Z,8.20
2023-04-20T09:03:37.710Z,8.10
2023-04-20T09:06:10.179Z,8.20
2023-04-20T09:08:42.790Z,8.10
2023-04-20T09:11:24.357Z,8.00
2023-04-20T09:14:02.863Z,8.20
2023-04-20T09:16:37.530Z,8.20
2023-04-20T09:19:09.700Z,8.00
2023-04-20T09:21:50.860Z,8.10
2023-04-20T09:24:22.824Z,8.10
2023-04-20T09:26:54.207Z,8.20
2023-04-20T09:29:26.812Z,8.20
2023-04-20T09:32:00.470Z,8.20
2023-04-20T09:34:31.858Z,8.20
2023-04-20T09:37:02.876Z,8.10
2023-04-20T09:39:36.905Z,7.90
2023-04-20T09:42:08.876Z,8.00
2023-04-20T09:44:43.501Z,8.00
2023-04-20T09:47:26.121Z,7.80
2023-04-20T09:50:00.123Z,7.90
2023-04-20T09:52:34.118Z,7.90
2023-04-20T09:55:05.836Z,8.20
2023-04-20T09:57:37.906Z,8.40
2023-04-20T10:00:10.982Z,8.60
2023-04-20T10:02:44.737Z,8.60
2023-04-20T10:05:16.166Z,8.70
2023-04-20T10:07:47.276Z,8.80
2023-04-20T10:10:19.544Z,9.10
2023-04-20T10:12:51.707Z,8.90
2023-04-20T10:15:24.276Z,9.10
2023-04-20T10:18:01.152Z,9.20
2023-04-20T10:20:32.379Z,9.00
2023-04-20T10:23:11.563Z,9.00
2023-04-20T10:25:43.015Z,8.80
2023-04-20T10:28:14.155Z,8.90
2023-04-20T10:30:54.694Z,9.20
2023-04-20T10:33:28.494Z,9.10
2023-04-20T10:35:59.584Z,9.10
2023-04-20T10:38:34.473Z,9.10
2023-04-20T10:41:12.501Z,9.20
2023-04-20T10:43:44.933Z,9.20
2023-04-20T10:46:24.404Z,9.30
2023-04-20T10:49:01.748Z,9.30
2023-04-20T10:51:33.449Z,9.30
2023-04-20T10:54:05.335Z,9.10
2023-04-20T10:56:43.941Z,9.10
2023-04-20T10:59:19.610Z,9.30
2023-04-20T11:01:51.467Z,9.40
2023-04-20T11:04:34.267Z,9.60
2023-04-20T11:07:10.076Z,9.60
2023-04-20T11:09:42.983Z,9.70
2023-04-20T11:12:16.380Z,9.80
2023-04-20T11:14:55.575Z,9.80
2023-04-20T11:17:35.492Z,9.70
2023-04-20T11:20:15.542Z,9.70
2023-04-20T11:22:47.547Z,10.00
2023-04-20T11:25:18.454Z,10.20
2023-04-20T11:27:49.442Z,10.40
2023-04-20T11:30:21.188Z,10.70
2023-04-20T11:32:57.388Z,11.00
2023-04-20T11:35:38.436Z,11.00
2023-04-20T11:38:09.716Z,10.80
2023-04-20T11:40:44.251Z,10.60
2023-04-20T11:43:15.656Z,10.90
2023-04-20T11:45:46.920Z,10.40
2023-04-20T11:48:18.736Z,10.10
2023-04-20T11:50:52.245Z,10.00
2023-04-20T11:53:23.196Z,9.90
2023-04-20T11:55:54.262Z,9.90
2023-04-20T11:58:25.407Z,10.20
2023-04-20T12:00:56.291Z,10.20
2023-04-20T12:03:27.511Z,10.50
2023-04-20T12:06:01.253Z,10.90
2023-04-20T12:08:32.254Z,11.00
2023-04-20T12:11:03.207Z,10.80
2023-04-20T12:13:34.100Z,10.90
2023-04-20T12:16:07.331Z,10.80
2023-04-20T12:18:38.296Z,10.80
2023-04-20T12:21:11.940Z,10.70
2023-04-20T12:23:44.022Z,10.50
2023-04-20T12:26:14.919Z,10.50
2023-04-20T12:28:45.872Z,10.70
2023-04-20T12:31:16.890Z,10.80
2023-04-20T12:33:47.906Z,10.80
2023-04-20T12:36:24.613Z,11.10
2023-04-20T12:38:56.239Z,11.30
2023-04-20T12:41:27.553Z,11.40
2023-04-20T12:43:58.629Z,11.20
2023-04-20T12:46:31.795Z,11.10
2023-04-20T12:49:06.344Z,10.90
2023-04-20T12:51:39.878Z,11.10
2023-04-20T12:54:12.088Z,11.00
2023-04-20T12:56:42.989Z,11.10
2023-04-20T12:59:14.528Z,11.10
2023-04-20T13:01:45.727Z,11.10
2023-04-20T13:04:17.237Z,11.50
2023-04-20T13:06:51.753Z,11.50
2023-04-20T13:09:27.118Z,11.50
2023-04-20T13:11:58.309Z,11.40
2023-04-20T13:14:29.665Z,11.30
2023-04-20T13:17:01.885Z,11.10
2023-04-20T13:19:34.226Z,11.00
2023-04-20T13:22:07.898Z,10.90
2023-04-20T13:24:38.855Z,10.80
2023-04-20T13:27:10.446Z,10.70
2023-04-20T13:29:41.566Z,10.60
2023-04-20T13:32:13.331Z,10.80
2023-04-20T13:34:44.500Z,10.60
2023-04-20T13:37:18.186Z,10.60
2023-04-20T13:39:51.029Z,10.80
2023-04-20T13:42:22.316Z,11.00
2023-04-20T13:44:54.150Z,11.10
2023-04-20T13:47:25.665Z,11.40
2023-04-20T13:49:56.831Z,11.50
2023-04-20T13:52:30.428Z,11.90
2023-04-20T13:55:01.370Z,12.00
2023-04-20T13:57:32.812Z,12.00
2023-04-20T14:00:05.093Z,12.40
2023-04-20T14:02:36.422Z,11.90
2023-04-20T14:05:11.023Z,11.80
2023-04-20T14:07:44.588Z,11.70
2023-04-20T14:10:15.785Z,11.70
2023-04-20T14:12:46.905Z,11.70
2023-04-20T14:15:17.948Z,11.70
2023-04-20T14:17:51.669Z,11.90
2023-04-20T14:20:23.441Z,12.00
2023-04-20T14:22:57.196Z,11.90
2023-04-20T14:25:28.242Z,12.00
2023-04-20T14:27:59.334Z,12.00
2023-04-20T14:30:30.454Z,12.00
2023-04-20T14:33:04.567Z,11.90
2023-04-20T14:35:35.794Z,12.00
2023-04-20T14:38:09.380Z,12.10
2023-04-20T14:40:40.658Z,12.10
2023-04-20T14:43:11.673Z,12.00
2023-04-20T14:45:44.883Z,12.10
2023-04-20T14:48:15.963Z,12.40
2023-04-20T14:50:46.877Z,12.50
2023-04-20T14:53:20.564Z,12.70
2023-04-20T14:55:51.688Z,12.60
2023-04-20T14:58:23.462Z,12.40
2023-04-20T15:00:57.817Z,12.30
2023-04-20T15:03:28.945Z,12.30
2023-04-20T15:06:03.725Z,12.20
2023-04-20T15:08:37.682Z,12.10
2023-04-20T15:11:09.034Z,12.10
2023-04-20T15:13:43.869Z,12.20
2023-04-20T15:16:15.029Z,11.90
2023-04-20T15:18:46.651Z,12.30
2023-04-20T15:21:17.568Z,12.10
2023-04-20T15:23:56.830Z,12.10
2023-04-20T15:26:27.936Z,12.30
2023-04-20T15:28:59.644Z,12.50
2023-04-20T15:31:30.862Z,12.40
2023-04-20T15:34:02.855Z,12.20
2023-04-20T15:36:33.960Z,12.10
2023-04-20T15:41:01.855Z,12.30
2023-04-20T15:43:09.354Z,12.50
2023-04-20T15:45:41.279Z,12.50
2023-04-20T15:48:14.046Z,12.50
2023-04-20T15:50:45.337Z,12.60
2023-04-20T15:53:25.382Z,12.70
2023-04-20T15:56:08.380Z,12.50
2023-04-20T15:58:40.301Z,12.40
2023-04-20T16:01:11.492Z,12.40
2023-04-20T16:03:44.011Z,12.30
2023-04-20T16:06:20.346Z,12.30
2023-04-20T16:08:54.832Z,12.20
2023-04-20T16:11:28.330Z,12.30
2023-04-20T16:13:59.650Z,12.20
2023-04-20T16:16:30.930Z,12.20
2023-04-20T16:19:01.949Z,12.30
2023-04-20T16:21:32.962Z,12.30
2023-04-20T16:24:03.878Z,12.30
2023-04-20T16:26:39.507Z,12.20
2023-04-20T16:29:11.924Z,12.00
2023-04-20T16:31:42.898Z,12.00
2023-04-20T16:34:14.013Z,12.00
2023-04-20T16:36:45.334Z,12.00
2023-04-20T16:39:19.880Z,12.10
2023-04-20T16:41:54.226Z,12.00
2023-04-20T16:44:25.754Z,11.80
2023-04-20T16:46:56.950Z,11.70
2023-04-20T16:49:28.082Z,11.60
2023-04-20T16:51:59.359Z,11.40
2023-04-20T16:54:30.628Z,11.20
2023-04-20T16:57:04.238Z,10.90
2023-04-20T16:59:35.242Z,10.90
2023-04-20T17:02:06.233Z,10.80
2023-04-20T17:04:37.438Z,10.80
2023-04-20T17:07:08.359Z,10.70
2023-04-20T17:09:39.352Z,10.60
2023-04-20T17:12:13.045Z,10.40
2023-04-20T17:14:44.131Z,10.30
2023-04-20T17:17:15.116Z,10.10
2023-04-20T17:19:46.250Z,10.00
2023-04-20T17:22:17.334Z,10.10
2023-04-20T17:24:48.370Z,10.10
2023-04-20T17:27:23.235Z,10.00
2023-04-20T17:29:56.028Z,10.00
2023-04-20T17:32:27.026Z,10.20
2023-04-20T17:34:58.861Z,9.80
2023-04-20T17:37:29.958Z,9.90
2023-04-20T17:40:01.722Z,10.00
2023-04-20T17:42:35.262Z,10.10
2023-04-20T17:45:10.316Z,10.00
2023-04-20T17:47:44.342Z,10.10
2023-04-20T17:50:16.684Z,10.10
2023-04-20T17:52:51.691Z,10.10
2023-04-20T17:55:22.913Z,10.10
2023-04-20T17:57:56.593Z,10.10
2023-04-20T18:00:27.851Z,10.00
2023-04-20T18:02:59.056Z,10.10
2023-04-20T18:05:31.137Z,10.50
2023-04-20T18:08:02.225Z,10.50
2023-04-20T18:10:34.162Z,10.30
2023-04-20T18:13:10.785Z,10.30
2023-04-20T18:15:42.420Z,10.20
2023-04-20T18:18:13.484Z,10.10
2023-04-20T18:20:44.489Z,10.10
2023-04-20T18:23:15.806Z,10.10
2023-04-20T18:25:46.842Z,10.00
2023-04-20T18:28:20.453Z,10.00
2023-04-20T18:30:51.509Z,10.00
2023-04-20T18:33:23.690Z,10.10
2023-04-20T18:35:54.789Z,10.00
2023-04-20T18:38:25.833Z,9.90
2023-04-20T18:40:56.796Z,9.90
2023-04-20T18:43:33.216Z,9.90
2023-04-20T18:46:04.132Z,10.20
2023-04-20T18:48:35.167Z,9.80
2023-04-20T18:51:06.494Z,9.90
2023-04-20T18:53:37.621Z,9.90
2023-04-20T18:56:10.199Z,9.90
2023-04-20T18:58:44.382Z,9.80
2023-04-20T19:01:15.400Z,9.80
2023-04-20T19:03:48.034Z,9.80
2023-04-20T19:06:19.203Z,9.80
2023-04-20T19:08:50.218Z,9.80
2023-04-20T19:11:21.143Z,9.70
2023-04-20T19:13:54.797Z,9.60
2023-04-20T19:16:25.853Z,9.50
2023-04-20T19:18:56.898Z,9.50
2023-04-20T19:21:27.893Z,9.50
2023-04-20T19:23:59.206Z,9.50
2023-04-20T19:26:30.223Z,9.50
2023-04-20T19:29:04.701Z,9.40
2023-04-20T19:31:37.985Z,9.50
2023-04-20T19:34:10.756Z,9.40
2023-04-20T19:36:42.277Z,9.30
2023-04-20T19:39:13.308Z,9.40
2023-04-20T19:41:44.249Z,9.70
2023-04-20T19:44:18.070Z,9.30
2023-04-20T19:46:50.041Z,9.20
2023-04-20T19:49:21.247Z,9.20
2023-04-20T19:51:52.344Z,9.30
2023-04-20T19:54:23.425Z,9.30
2023-04-20T19:56:54.537Z,9.30
2023-04-20T19:59:30.080Z,9.40
2023-04-20T20:02:01.161Z,9.40
2023-04-20T20:04:32.761Z,9.50
2023-04-20T20:07:04.107Z,9.30
2023-04-20T20:09:35.140Z,9.30
2023-04-20T20:12:08.604Z,9.30
2023-04-20T20:14:42.331Z,9.30
2023-04-20T20:17:16.401Z,9.30
2023-04-20T20:19:47.680Z,9.30
2023-04-20T20:22:24.859Z,9.20
2023-04-20T20:24:56.022Z,9.20
2023-04-20T20:27:27.217Z,9.20
2023-04-20T20:30:00.993Z,9.60
2023-04-20T20:32:31.977Z,9.20
2023-04-20T20:35:04.744Z,9.20
2023-04-20T20:37:36.076Z,9.20
2023-04-20T20:40:13.232Z,9.20
2023-04-20T20:42:45.305Z,9.20
2023-04-20T20:45:19.197Z,9.20
2023-04-20T20:47:50.148Z,9.20
2023-04-20T20:50:21.601Z,9.20
2023-04-20T20:52:52.646Z,9.20
2023-04-20T20:55:25.867Z,9.20
2023-04-20T20:57:56.906Z,9.10
2023-04-20T21:00:30.493Z,9.30
2023-04-20T21:03:01.591Z,9.20
2023-04-20T21:05:34.368Z,9.20
2023-04-20T21:08:06.526Z,9.20
2023-04-20T21:10:37.482Z,9.20
2023-04-20T21:13:08.557Z,9.20
2023-04-20T21:15:42.173Z,9.30
2023-04-20T21:18:13.961Z,9.20
2023-04-20T21:20:45.115Z,9.20
2023-04-20T21:23:18.694Z,9.20
2023-04-20T21:25:49.651Z,9.20
2023-04-20T21:28:20.806Z,9.20
2023-04-20T21:30:54.497Z,9.20
2023-04-20T21:33:27.564Z,9.20
2023-04-20T21:35:59.105Z,9.10
2023-04-20T21:38:30.322Z,9.20
2023-04-20T21:41:01.324Z,9.20
2023-04-20T21:43:32.450Z,9.20
2023-04-20T21:46:06.144Z,9.20
2023-04-20T21:48:37.132Z,9.30
2023-04-20T21:51:08.121Z,9.40
2023-04-20T21:53:39.863Z,9.40
2023-04-20T21:56:11.282Z,9.30
2023-04-20T21:58:42.198Z,9.30
2023-04-20T22:01:15.905Z,9.40
2023-04-20T22:03:47.840Z,9.40
2023-04-20T22:06:18.974Z,9.30
2023-04-20T22:08:49.911Z,9.40
2023-04-20T22:11:21.289Z,9.50
2023-04-20T22:13:52.269Z,9.50
2023-04-20T22:16:25.982Z,9.40
2023-04-20T22:18:57.230Z,9.80
2023-04-20T22:21:28.441Z,9.30
2023-04-20T22:23:59.661Z,9.40
2023-04-20T22:26:30.875Z,9.30
2023-04-20T22:29:02.421Z,9.20
2023-04-20T22:31:36.024Z,9.20
2023-04-20T22:34:07.024Z,9.20
2023-04-20T22:36:38.340Z,9.30
2023-04-20T22:39:09.366Z,9.20
2023-04-20T22:41:40.269Z,9.20
2023-04-20T22:44:11.369Z,9.20
2023-04-20T22:46:44.891Z,9.30
2023-04-20T22:49:16.130Z,9.30
2023-04-20T22:51:47.098Z,9.20
2023-04-20T22:54:18.265Z,9.10
2023-04-20T22:56:49.168Z,9.10
2023-04-20T22:59:20.395Z,9.00
2023-04-20T23:02:04.477Z,9.10
2023-04-20T23:04:38.562Z,9.10
2023-04-20T23:07:11.579Z,9.00
2023-04-20T23:09:51.449Z,8.90
2023-04-20T23:12:22.584Z,8.80
2023-04-20T23:15:00.664Z,8.70
2023-04-20T23:17:54.219Z,8.70
2023-04-20T23:20:29.303Z,8.80
2023-04-20T23:23:16.809Z,8.80
2023-04-20T23:25:55.649Z,8.70
2023-04-20T23:28:26.634Z,8.60
2023-04-20T23:30:57.536Z,8.70
2023-04-20T23:33:31.112Z,8.80
2023-04-20T23:36:02.264Z,8.80
2023-04-20T23:38:33.297Z,8.90
2023-04-20T23:41:04.234Z,9.00
2023-04-20T23:43:35.247Z,9.00
2023-04-20T23:46:08.465Z,9.10
2023-04-20T23:48:42.035Z,9.00
2023-04-20T23:51:13.169Z,8.40
2023-04-20T23:53:44.182Z,9.00
2023-04-20T23:56:15.353Z,9.10
2023-04-20T23:58:46.349Z,9.20
